AirNav   Air Wisconsin Up To $57,000 Bonus
 
 556 users online  

AZ06 Dusty Wings Field Airport
Wellton, Arizona, USA

GOING TO WELLTON?


FAA INFORMATION EFFECTIVE 04 NOVEMBER 2021

Location

FAA Identifier: AZ06
Lat/Long: 32-47-10.8100N 113-56-18.9600W
32-47.180167N 113-56.316000W
32.7863361,-113.9386000
(estimated)
Elevation: 289 ft. / 88 m (estimated)
Variation: 13E (1985)
From city: 12 miles NE of WELLTON, AZ
Time zone: UTC -7 (year round; does not observe DST)
Zip code: 85347

Airport Operations

Airport use: Private use. Permission required prior to landing
Activation date: 02/2017
Control tower: no
ARTCC: LOS ANGELES CENTER
FSS: PRESCOTT FLIGHT SERVICE STATION
Attendance: 
Wind indicator: yes
Segmented circle: yes

Airport Communications

UNICOM: 122.8

Nearby radio navigation aids

VOR radial/distance  VOR name  Freq  Var
BZAr074/33.5BARD VORTAC116.8014E

Airport Services

Runway Information

Runway 7/25

Dimensions: 1403 x 65 ft. / 428 x 20 m
Surface: gravel
RUNWAY 7  RUNWAY 25
Traffic pattern: leftleft

Airport Ownership and Management from official FAA records

Ownership: Privately-owned
Owner: ROBERT AND COLEEN HANAFI
28411 CANAL AVE
WELLTON, AZ 85356
Phone 602-549-7282
EMAIL: AZSUPERCUB@HOTMAIL.COM
Manager: ROBERT HANAFI
28411 CANAL AVE
WELLTON, AZ 85356
Phone 602-549-7282

Airport Operational Statistics

Aircraft based on the field: 2
Single engine airplanes: 2
    

Additional Remarks

FOR CD CTC LOS ANGELES ARTCC AT 661-575-2079.

Instrument Procedures

There are no published instrument procedures at AZ06.

Some nearby airports with instrument procedures:

KLGF - Laguna Army Airfield (Yuma Proving Ground) (23 nm W)
KNYL - Yuma Marine Corps Air Station/Yuma International Airport (35 nm W)
KBLH - Blythe Airport (63 nm NW)
KBWC - Brawley Municipal Airport (80 nm W)
KCLR - Cliff Hatfield Memorial Airport (82 nm W)
 
Loc | Ops | Rwys | IFR | FBO | Links
Com | Nav | Svcs | Stats | Notes
Aerial photo
WARNING: Photo may not be current or correct
Aerial photo of AZ06 (Dusty Wings Field Airport)
Photo taken 09-Apr-2016

Do you have a better or more recent aerial photo of Dusty Wings Field Airport that you would like to share? If so, please send us your photo.

 
Airport distance calculator
Flying to Dusty Wings Field Airport? Find the distance to fly.

From to AZ06

Sunrise and sunset
Times for 01-Dec-2021
 Local
(UTC-7)
 Zulu
(UTC)
Morning civil twilight06:5413:54
Sunrise07:2114:21
Sunset17:2800:28
Evening civil twilight17:5500:55

Current date and time
Zulu (UTC)  02-Dec-2021 06:53:42
Local (UTC-7)  01-Dec-2021 23:53:42
 
METAR
KLGF 
23nm W 
020558Z AUTO 33003KT 10SM CLR 20/M08 A3004 RMK AO2 SLP171 T02001080 10272 20200 50005 $
KNOZ 
31nm SW 
020559Z AUTO 00000KT 10SM CLR 17/M04 A3005 RMK AO2 SLP125 T01721039 10267 20156 51007
KNYL 
35nm W 
020557Z AUTO 20004KT 7SM SCT180 16/M02 A3004 RMK AO2 SLP171 LAST T01611017 10272 20161 53007
TAF
KNYL 
35nm W 
0203/0303 VRB06KT 9999 SCT180 QNH3002INS BECMG 0205/0207 VRB06KT 9999 BKN100 QNH3001INS FM021300 VRB06KT 9999 SCT100 QNH2996INS AUTOMATED SENSOR METWATCH 0205 TIL 0214 T15/0212Z T28/0222Z
NOTAMs
Click for the latest NOTAMs
NOTAMs are issued by the DoD/FAA and will open in a separate window not controlled by AirNav.

 

 
 

Would you like to see your business listed on this page?

 If your business provides an interesting product or service to pilots, flight crews, aircraft, or users of the Dusty Wings Field Airport, you should consider listing it here.  To start the listing process, click on the button below
 
Add a business
 

Other Pages about Dusty Wings Field Airport

Update a link
 
Copyright © AirNav, LLC. All rights reserved. Privacy Policy  Contact